sensor_id;sensor_type;location;lat;lon;timestamp;P1;durP1;ratioP1;P2;durP2;ratioP2
70796;SDS011;63842;52.144;5.360;2023-03-04T00:02:13;10.35;;;1.55;;
70796;SDS011;63842;52.144;5.360;2023-03-04T00:04:44;10.45;;;1.50;;
70796;SDS011;63842;52.144;5.360;2023-03-04T00:07:12;11.70;;;1.80;;
70796;SDS011;63842;52.144;5.360;2023-03-04T00:09:43;8.77;;;1.45;;
70796;SDS011;63842;52.144;5.360;2023-03-04T00:12:11;10.30;;;1.30;;
70796;SDS011;63842;52.144;5.360;2023-03-04T00:14:38;10.57;;;1.60;;
70796;SDS011;63842;52.144;5.360;2023-03-04T00:17:06;11.18;;;1.63;;
70796;SDS011;63842;52.144;5.360;2023-03-04T00:19:33;10.50;;;1.90;;
70796;SDS011;63842;52.144;5.360;2023-03-04T00:22:03;11.30;;;1.20;;
70796;SDS011;63842;52.144;5.360;2023-03-04T00:24:30;8.25;;;1.38;;
70796;SDS011;63842;52.144;5.360;2023-03-04T00:26:58;9.57;;;1.65;;
70796;SDS011;63842;52.144;5.360;2023-03-04T00:29:25;10.90;;;2.00;;
70796;SDS011;63842;52.144;5.360;2023-03-04T00:31:52;8.73;;;1.60;;
70796;SDS011;63842;52.144;5.360;2023-03-04T00:34:20;10.57;;;1.20;;
70796;SDS011;63842;52.144;5.360;2023-03-04T00:36:50;11.07;;;1.73;;
70796;SDS011;63842;52.144;5.360;2023-03-04T00:39:18;10.60;;;1.50;;
70796;SDS011;63842;52.144;5.360;2023-03-04T00:41:46;10.68;;;1.88;;
70796;SDS011;63842;52.144;5.360;2023-03-04T00:44:13;7.72;;;1.38;;
70796;SDS011;63842;52.144;5.360;2023-03-04T00:46:40;7.47;;;1.65;;
70796;SDS011;63842;52.144;5.360;2023-03-04T00:49:07;11.27;;;1.65;;
70796;SDS011;63842;52.144;5.360;2023-03-04T00:51:35;9.38;;;1.70;;
70796;SDS011;63842;52.144;5.360;2023-03-04T00:54:02;12.43;;;1.65;;
70796;SDS011;63842;52.144;5.360;2023-03-04T00:56:30;8.60;;;1.95;;
70796;SDS011;63842;52.144;5.360;2023-03-04T00:59:02;9.52;;;1.52;;
70796;SDS011;63842;52.144;5.360;2023-03-04T01:01:30;6.30;;;1.20;;
70796;SDS011;63842;52.144;5.360;2023-03-04T01:03:57;13.35;;;1.75;;
70796;SDS011;63842;52.144;5.360;2023-03-04T01:06:25;10.00;;;1.60;;
70796;SDS011;63842;52.144;5.360;2023-03-04T01:08:53;11.73;;;1.80;;
70796;SDS011;63842;52.144;5.360;2023-03-04T01:11:20;8.45;;;1.30;;
70796;SDS011;63842;52.144;5.360;2023-03-04T01:13:49;7.95;;;1.45;;
70796;SDS011;63842;52.144;5.360;2023-03-04T01:16:16;7.65;;;1.20;;
70796;SDS011;63842;52.144;5.360;2023-03-04T01:18:43;8.98;;;1.95;;
70796;SDS011;63842;52.144;5.360;2023-03-04T01:21:13;9.27;;;1.60;;
70796;SDS011;63842;52.144;5.360;2023-03-04T01:23:42;6.90;;;1.40;;
70796;SDS011;63842;52.144;5.360;2023-03-04T01:26:09;8.57;;;1.52;;
70796;SDS011;63842;52.144;5.360;2023-03-04T01:28:36;6.57;;;1.17;;
70796;SDS011;63842;52.144;5.360;2023-03-04T01:31:05;7.32;;;1.60;;
70796;SDS011;63842;52.144;5.360;2023-03-04T01:33:32;8.10;;;1.25;;
70796;SDS011;63842;52.144;5.360;2023-03-04T01:36:01;7.28;;;1.48;;
70796;SDS011;63842;52.144;5.360;2023-03-04T01:38:29;7.63;;;1.50;;
70796;SDS011;63842;52.144;5.360;2023-03-04T01:40:56;7.65;;;1.20;;
70796;SDS011;63842;52.144;5.360;2023-03-04T01:43:24;9.10;;;2.30;;
70796;SDS011;63842;52.144;5.360;2023-03-04T01:45:53;8.77;;;1.35;;
70796;SDS011;63842;52.144;5.360;2023-03-04T01:48:21;8.35;;;1.20;;
70796;SDS011;63842;52.144;5.360;2023-03-04T01:50:50;7.80;;;1.35;;
70796;SDS011;63842;52.144;5.360;2023-03-04T01:53:25;9.63;;;1.48;;
70796;SDS011;63842;52.144;5.360;2023-03-04T01:55:53;8.27;;;1.35;;
70796;SDS011;63842;52.144;5.360;2023-03-04T01:58:27;9.38;;;1.52;;
70796;SDS011;63842;52.144;5.360;2023-03-04T02:00:56;8.10;;;1.40;;
70796;SDS011;63842;52.144;5.360;2023-03-04T02:03:23;10.40;;;1.60;;
70796;SDS011;63842;52.144;5.360;2023-03-04T02:05:53;11.50;;;1.73;;
70796;SDS011;63842;52.144;5.360;2023-03-04T02:08:22;9.82;;;1.85;;
70796;SDS011;63842;52.144;5.360;2023-03-04T02:10:49;8.65;;;1.60;;
70796;SDS011;63842;52.144;5.360;2023-03-04T02:13:17;10.93;;;1.70;;
70796;SDS011;63842;52.144;5.360;2023-03-04T02:15:47;9.27;;;1.40;;
70796;SDS011;63842;52.144;5.360;2023-03-04T02:18:16;6.85;;;1.60;;
70796;SDS011;63842;52.144;5.360;2023-03-04T02:23:22;6.40;;;1.25;;
70796;SDS011;63842;52.144;5.360;2023-03-04T02:28:39;15.18;;;1.40;;
70796;SDS011;63842;52.144;5.360;2023-03-04T02:31:10;8.95;;;1.20;;
70796;SDS011;63842;52.144;5.360;2023-03-04T02:33:46;8.63;;;1.23;;
70796;SDS011;63842;52.144;5.360;2023-03-04T02:36:13;10.52;;;1.42;;
70796;SDS011;63842;52.144;5.360;2023-03-04T02:38:41;7.13;;;1.10;;
70796;SDS011;63842;52.144;5.360;2023-03-04T02:41:13;6.13;;;1.25;;
70796;SDS011;63842;52.144;5.360;2023-03-04T02:43:44;11.30;;;1.70;;
70796;SDS011;63842;52.144;5.360;2023-03-04T02:46:12;5.30;;;1.15;;
70796;SDS011;63842;52.144;5.360;2023-03-04T02:48:40;5.43;;;1.30;;
70796;SDS011;63842;52.144;5.360;2023-03-04T02:51:07;13.05;;;1.88;;
70796;SDS011;63842;52.144;5.360;2023-03-04T02:53:35;9.68;;;1.75;;
70796;SDS011;63842;52.144;5.360;2023-03-04T02:56:02;8.90;;;1.42;;
70796;SDS011;63842;52.144;5.360;2023-03-04T02:58:34;11.27;;;1.63;;
70796;SDS011;63842;52.144;5.360;2023-03-04T03:01:15;10.10;;;1.45;;
70796;SDS011;63842;52.144;5.360;2023-03-04T03:03:43;7.50;;;1.40;;
70796;SDS011;63842;52.144;5.360;2023-03-04T03:06:10;8.50;;;1.52;;
70796;SDS011;63842;52.144;5.360;2023-03-04T03:08:38;9.30;;;1.50;;
70796;SDS011;63842;52.144;5.360;2023-03-04T03:11:05;7.30;;;1.30;;
70796;SDS011;63842;52.144;5.360;2023-03-04T03:13:35;5.43;;;1.27;;
70796;SDS011;63842;52.144;5.360;2023-03-04T03:16:02;8.13;;;1.42;;
70796;SDS011;63842;52.144;5.360;2023-03-04T03:18:30;6.72;;;1.30;;
70796;SDS011;63842;52.144;5.360;2023-03-04T03:20:57;6.45;;;1.25;;
70796;SDS011;63842;52.144;5.360;2023-03-04T03:23:24;9.65;;;1.23;;
70796;SDS011;63842;52.144;5.360;2023-03-04T03:25:52;8.15;;;1.50;;
70796;SDS011;63842;52.144;5.360;2023-03-04T03:28:19;7.85;;;1.45;;
70796;SDS011;63842;52.144;5.360;2023-03-04T03:30:47;6.78;;;1.45;;
70796;SDS011;63842;52.144;5.360;2023-03-04T03:33:14;6.55;;;0.98;;
70796;SDS011;63842;52.144;5.360;2023-03-04T03:35:41;6.50;;;1.10;;
70796;SDS011;63842;52.144;5.360;2023-03-04T03:38:10;6.60;;;1.10;;
70796;SDS011;63842;52.144;5.360;2023-03-04T03:40:38;5.00;;;1.02;;
70796;SDS011;63842;52.144;5.360;2023-03-04T03:43:06;9.57;;;1.33;;
70796;SDS011;63842;52.144;5.360;2023-03-04T03:45:36;6.72;;;1.20;;
70796;SDS011;63842;52.144;5.360;2023-03-04T03:48:05;7.25;;;1.20;;
70796;SDS011;63842;52.144;5.360;2023-03-04T03:50:32;5.68;;;0.82;;
70796;SDS011;63842;52.144;5.360;2023-03-04T03:53:02;8.00;;;1.00;;
70796;SDS011;63842;52.144;5.360;2023-03-04T03:55:31;7.07;;;0.93;;
70796;SDS011;63842;52.144;5.360;2023-03-04T03:57:58;8.55;;;1.33;;
70796;SDS011;63842;52.144;5.360;2023-03-04T04:00:25;9.63;;;1.50;;
70796;SDS011;63842;52.144;5.360;2023-03-04T04:02:53;12.25;;;1.80;;
70796;SDS011;63842;52.144;5.360;2023-03-04T04:05:21;5.97;;;1.00;;
70796;SDS011;63842;52.144;5.360;2023-03-04T04:07:49;6.03;;;1.00;;
70796;SDS011;63842;52.144;5.360;2023-03-04T04:10:19;7.60;;;1.10;;
70796;SDS011;63842;52.144;5.360;2023-03-04T04:12:47;6.90;;;1.20;;
70796;SDS011;63842;52.144;5.360;2023-03-04T04:15:14;7.93;;;1.00;;
70796;SDS011;63842;52.144;5.360;2023-03-04T04:17:41;10.43;;;1.27;;
70796;SDS011;63842;52.144;5.360;2023-03-04T04:20:08;7.53;;;1.23;;
70796;SDS011;63842;52.144;5.360;2023-03-04T04:22:36;5.05;;;0.90;;
70796;SDS011;63842;52.144;5.360;2023-03-04T04:25:03;4.90;;;0.90;;
70796;SDS011;63842;52.144;5.360;2023-03-04T04:27:34;7.47;;;1.30;;
70796;SDS011;63842;52.144;5.360;2023-03-04T04:30:01;7.60;;;1.25;;
70796;SDS011;63842;52.144;5.360;2023-03-04T04:32:29;9.00;;;1.38;;
70796;SDS011;63842;52.144;5.360;2023-03-04T04:34:56;9.05;;;1.42;;
70796;SDS011;63842;52.144;5.360;2023-03-04T04:37:23;11.85;;;1.20;;
70796;SDS011;63842;52.144;5.360;2023-03-04T04:39:51;6.10;;;0.70;;
70796;SDS011;63842;52.144;5.360;2023-03-04T04:42:20;5.00;;;0.90;;
70796;SDS011;63842;52.144;5.360;2023-03-04T04:44:52;6.75;;;1.25;;
70796;SDS011;63842;52.144;5.360;2023-03-04T04:47:20;9.30;;;1.30;;
70796;SDS011;63842;52.144;5.360;2023-03-04T04:49:48;5.47;;;1.13;;
70796;SDS011;63842;52.144;5.360;2023-03-04T04:52:17;6.82;;;1.17;;
70796;SDS011;63842;52.144;5.360;2023-03-04T04:54:44;7.97;;;1.65;;
70796;SDS011;63842;52.144;5.360;2023-03-04T04:57:11;5.10;;;1.23;;
70796;SDS011;63842;52.144;5.360;2023-03-04T04:59:39;7.28;;;1.30;;
70796;SDS011;63842;52.144;5.360;2023-03-04T05:02:06;6.68;;;1.08;;
70796;SDS011;63842;52.144;5.360;2023-03-04T05:04:33;7.00;;;1.10;;
70796;SDS011;63842;52.144;5.360;2023-03-04T05:07:02;4.28;;;0.95;;
70796;SDS011;63842;52.144;5.360;2023-03-04T05:09:29;6.15;;;1.00;;
70796;SDS011;63842;52.144;5.360;2023-03-04T05:11:56;3.55;;;0.85;;
70796;SDS011;63842;52.144;5.360;2023-03-04T05:14:23;4.70;;;0.98;;
70796;SDS011;63842;52.144;5.360;2023-03-04T05:16:51;6.25;;;1.40;;
70796;SDS011;63842;52.144;5.360;2023-03-04T05:19:19;7.20;;;1.20;;
70796;SDS011;63842;52.144;5.360;2023-03-04T05:21:46;6.03;;;0.82;;
70796;SDS011;63842;52.144;5.360;2023-03-04T05:24:13;6.57;;;1.20;;
70796;SDS011;63842;52.144;5.360;2023-03-04T05:26:41;4.07;;;0.95;;
70796;SDS011;63842;52.144;5.360;2023-03-04T05:29:08;7.20;;;1.13;;
70796;SDS011;63842;52.144;5.360;2023-03-04T05:31:35;6.93;;;1.05;;
70796;SDS011;63842;52.144;5.360;2023-03-04T05:34:02;7.00;;;1.27;;
70796;SDS011;63842;52.144;5.360;2023-03-04T05:36:30;7.18;;;1.23;;
70796;SDS011;63842;52.144;5.360;2023-03-04T05:38:57;5.22;;;1.27;;
70796;SDS011;63842;52.144;5.360;2023-03-04T05:41:25;7.70;;;1.42;;
70796;SDS011;63842;52.144;5.360;2023-03-04T05:43:55;6.70;;;1.20;;
70796;SDS011;63842;52.144;5.360;2023-03-04T05:46:22;3.72;;;1.10;;
70796;SDS011;63842;52.144;5.360;2023-03-04T05:48:51;8.50;;;1.20;;
70796;SDS011;63842;52.144;5.360;2023-03-04T05:51:19;8.35;;;1.52;;
70796;SDS011;63842;52.144;5.360;2023-03-04T05:53:46;4.28;;;1.05;;
70796;SDS011;63842;52.144;5.360;2023-03-04T05:56:17;7.60;;;1.33;;
70796;SDS011;63842;52.144;5.360;2023-03-04T05:58:45;5.93;;;1.20;;
70796;SDS011;63842;52.144;5.360;2023-03-04T06:01:13;4.47;;;1.02;;
70796;SDS011;63842;52.144;5.360;2023-03-04T06:03:40;5.57;;;1.25;;
70796;SDS011;63842;52.144;5.360;2023-03-04T06:06:09;6.07;;;1.23;;
70796;SDS011;63842;52.144;5.360;2023-03-04T06:08:36;4.95;;;1.10;;
70796;SDS011;63842;52.144;5.360;2023-03-04T06:11:03;9.00;;;1.27;;
70796;SDS011;63842;52.144;5.360;2023-03-04T06:13:32;8.88;;;1.50;;
70796;SDS011;63842;52.144;5.360;2023-03-04T06:15:59;8.05;;;1.55;;
70796;SDS011;63842;52.144;5.360;2023-03-04T06:18:27;7.90;;;1.20;;
70796;SDS011;63842;52.144;5.360;2023-03-04T06:20:58;9.38;;;1.60;;
70796;SDS011;63842;52.144;5.360;2023-03-04T06:23:26;12.07;;;1.40;;
70796;SDS011;63842;52.144;5.360;2023-03-04T06:25:56;6.53;;;1.27;;
70796;SDS011;63842;52.144;5.360;2023-03-04T06:28:23;6.35;;;1.13;;
70796;SDS011;63842;52.144;5.360;2023-03-04T06:30:51;4.68;;;1.00;;
70796;SDS011;63842;52.144;5.360;2023-03-04T06:33:19;8.70;;;1.27;;
70796;SDS011;63842;52.144;5.360;2023-03-04T06:35:46;7.03;;;1.30;;
70796;SDS011;63842;52.144;5.360;2023-03-04T06:38:13;7.30;;;1.23;;
70796;SDS011;63842;52.144;5.360;2023-03-04T06:40:41;6.82;;;1.40;;
70796;SDS011;63842;52.144;5.360;2023-03-04T06:43:09;8.20;;;1.30;;
70796;SDS011;63842;52.144;5.360;2023-03-04T06:45:37;8.23;;;1.17;;
70796;SDS011;63842;52.144;5.360;2023-03-04T06:48:05;7.43;;;1.23;;
70796;SDS011;63842;52.144;5.360;2023-03-04T06:50:32;8.13;;;1.00;;
70796;SDS011;63842;52.144;5.360;2023-03-04T06:53:00;10.07;;;1.30;;
70796;SDS011;63842;52.144;5.360;2023-03-04T06:55:27;6.35;;;1.40;;
70796;SDS011;63842;52.144;5.360;2023-03-04T06:57:54;7.07;;;1.00;;
70796;SDS011;63842;52.144;5.360;2023-03-04T07:00:21;6.25;;;1.30;;
70796;SDS011;63842;52.144;5.360;2023-03-04T07:02:50;8.85;;;1.38;;
70796;SDS011;63842;52.144;5.360;2023-03-04T07:05:20;7.30;;;1.55;;
70796;SDS011;63842;52.144;5.360;2023-03-04T07:07:47;6.68;;;1.20;;
70796;SDS011;63842;52.144;5.360;2023-03-04T07:10:18;7.38;;;1.20;;
70796;SDS011;63842;52.144;5.360;2023-03-04T07:12:46;6.97;;;1.30;;
70796;SDS011;63842;52.144;5.360;2023-03-04T07:15:13;8.32;;;1.35;;
70796;SDS011;63842;52.144;5.360;2023-03-04T07:17:40;6.65;;;1.10;;
70796;SDS011;63842;52.144;5.360;2023-03-04T07:20:08;8.63;;;1.30;;
70796;SDS011;63842;52.144;5.360;2023-03-04T07:22:35;6.10;;;1.40;;
70796;SDS011;63842;52.144;5.360;2023-03-04T07:25:03;3.75;;;1.05;;
70796;SDS011;63842;52.144;5.360;2023-03-04T07:27:31;4.40;;;0.80;;
70796;SDS011;63842;52.144;5.360;2023-03-04T07:29:58;5.82;;;1.10;;
70796;SDS011;63842;52.144;5.360;2023-03-04T07:32:25;4.97;;;1.02;;
70796;SDS011;63842;52.144;5.360;2023-03-04T07:34:55;6.05;;;1.00;;
70796;SDS011;63842;52.144;5.360;2023-03-04T07:37:22;4.95;;;0.80;;
70796;SDS011;63842;52.144;5.360;2023-03-04T07:39:50;9.13;;;1.25;;
70796;SDS011;63842;52.144;5.360;2023-03-04T07:42:17;4.55;;;1.30;;
70796;SDS011;63842;52.144;5.360;2023-03-04T07:44:51;7.93;;;1.33;;
70796;SDS011;63842;52.144;5.360;2023-03-04T07:47:20;8.23;;;1.08;;
70796;SDS011;63842;52.144;5.360;2023-03-04T07:49:47;6.25;;;1.20;;
70796;SDS011;63842;52.144;5.360;2023-03-04T07:52:15;5.45;;;0.98;;
70796;SDS011;63842;52.144;5.360;2023-03-04T07:54:42;9.85;;;1.40;;
70796;SDS011;63842;52.144;5.360;2023-03-04T07:57:09;6.13;;;1.20;;
70796;SDS011;63842;52.144;5.360;2023-03-04T07:59:36;7.80;;;1.38;;
70796;SDS011;63842;52.144;5.360;2023-03-04T08:02:04;6.03;;;1.20;;
70796;SDS011;63842;52.144;5.360;2023-03-04T08:04:31;3.22;;;0.95;;
70796;SDS011;63842;52.144;5.360;2023-03-04T08:06:58;5.82;;;1.02;;
70796;SDS011;63842;52.144;5.360;2023-03-04T08:09:26;7.03;;;1.35;;
70796;SDS011;63842;52.144;5.360;2023-03-04T08:11:54;6.15;;;1.40;;
70796;SDS011;63842;52.144;5.360;2023-03-04T08:14:21;4.47;;;1.27;;
70796;SDS011;63842;52.144;5.360;2023-03-04T08:16:49;6.50;;;1.40;;
70796;SDS011;63842;52.144;5.360;2023-03-04T08:19:16;4.95;;;1.25;;
70796;SDS011;63842;52.144;5.360;2023-03-04T08:21:44;6.50;;;1.60;;
70796;SDS011;63842;52.144;5.360;2023-03-04T08:24:11;7.63;;;1.20;;
70796;SDS011;63842;52.144;5.360;2023-03-04T08:26:40;3.85;;;1.25;;
70796;SDS011;63842;52.144;5.360;2023-03-04T08:29:09;4.40;;;1.30;;
70796;SDS011;63842;52.144;5.360;2023-03-04T08:31:37;4.45;;;1.00;;
70796;SDS011;63842;52.144;5.360;2023-03-04T08:34:07;3.25;;;1.05;;
70796;SDS011;63842;52.144;5.360;2023-03-04T08:36:35;4.22;;;0.90;;
70796;SDS011;63842;52.144;5.360;2023-03-04T08:39:03;4.60;;;1.17;;
70796;SDS011;63842;52.144;5.360;2023-03-04T08:41:30;3.50;;;1.00;;
70796;SDS011;63842;52.144;5.360;2023-03-04T08:43:58;5.00;;;0.90;;
70796;SDS011;63842;52.144;5.360;2023-03-04T08:46:26;2.35;;;0.80;;
70796;SDS011;63842;52.144;5.360;2023-03-04T08:48:53;2.88;;;0.60;;
70796;SDS011;63842;52.144;5.360;2023-03-04T08:51:20;5.07;;;1.02;;
70796;SDS011;63842;52.144;5.360;2023-03-04T08:53:47;3.83;;;1.02;;
70796;SDS011;63842;52.144;5.360;2023-03-04T08:56:15;4.75;;;1.05;;
70796;SDS011;63842;52.144;5.360;2023-03-04T08:58:43;4.80;;;0.80;;
70796;SDS011;63842;52.144;5.360;2023-03-04T09:01:10;2.35;;;0.70;;
70796;SDS011;63842;52.144;5.360;2023-03-04T09:03:38;4.28;;;0.88;;
70796;SDS011;63842;52.144;5.360;2023-03-04T09:06:06;3.97;;;0.85;;
70796;SDS011;63842;52.144;5.360;2023-03-04T09:08:33;4.40;;;0.82;;
70796;SDS011;63842;52.144;5.360;2023-03-04T09:11:01;3.55;;;0.75;;
70796;SDS011;63842;52.144;5.360;2023-03-04T09:13:30;4.63;;;0.90;;
70796;SDS011;63842;52.144;5.360;2023-03-04T09:15:58;3.75;;;0.80;;
70796;SDS011;63842;52.144;5.360;2023-03-04T09:18:26;4.22;;;0.82;;
70796;SDS011;63842;52.144;5.360;2023-03-04T09:20:54;2.10;;;0.70;;
70796;SDS011;63842;52.144;5.360;2023-03-04T09:23:21;3.20;;;0.80;;
70796;SDS011;63842;52.144;5.360;2023-03-04T09:25:48;4.40;;;0.80;;
70796;SDS011;63842;52.144;5.360;2023-03-04T09:28:16;5.65;;;0.95;;
70796;SDS011;63842;52.144;5.360;2023-03-04T09:30:44;3.05;;;0.80;;
70796;SDS011;63842;52.144;5.360;2023-03-04T09:33:11;3.70;;;0.90;;
70796;SDS011;63842;52.144;5.360;2023-03-04T09:35:39;4.28;;;0.82;;
70796;SDS011;63842;52.144;5.360;2023-03-04T09:38:07;2.55;;;0.73;;
70796;SDS011;63842;52.144;5.360;2023-03-04T09:43:12;3.20;;;0.90;;
70796;SDS011;63842;52.144;5.360;2023-03-04T09:45:46;4.22;;;0.75;;
70796;SDS011;63842;52.144;5.360;2023-03-04T09:48:19;4.13;;;1.00;;
70796;SDS011;63842;52.144;5.360;2023-03-04T09:50:59;5.05;;;0.80;;
70796;SDS011;63842;52.144;5.360;2023-03-04T09:55:59;5.20;;;0.80;;
70796;SDS011;63842;52.144;5.360;2023-03-04T10:01:17;3.22;;;0.82;;
70796;SDS011;63842;52.144;5.360;2023-03-04T10:03:48;6.25;;;0.98;;
70796;SDS011;63842;52.144;5.360;2023-03-04T10:06:18;2.17;;;0.63;;
70796;SDS011;63842;52.144;5.360;2023-03-04T10:11:18;2.85;;;0.90;;
70796;SDS011;63842;52.144;5.360;2023-03-04T10:13:52;4.72;;;1.00;;
70796;SDS011;63842;52.144;5.360;2023-03-04T10:16:22;3.47;;;0.93;;
70796;SDS011;63842;52.144;5.360;2023-03-04T10:21:22;3.25;;;0.80;;
70796;SDS011;63842;52.144;5.360;2023-03-04T10:23:58;3.45;;;0.60;;
70796;SDS011;63842;52.144;5.360;2023-03-04T10:26:28;4.15;;;0.75;;
70796;SDS011;63842;52.144;5.360;2023-03-04T10:28:58;3.50;;;0.70;;
70796;SDS011;63842;52.144;5.360;2023-03-04T10:31:37;1.45;;;0.65;;
70796;SDS011;63842;52.144;5.360;2023-03-04T10:34:08;2.58;;;0.75;;
70796;SDS011;63842;52.144;5.360;2023-03-04T10:36:46;4.75;;;0.77;;
70796;SDS011;63842;52.144;5.360;2023-03-04T10:39:26;2.85;;;0.57;;
70796;SDS011;63842;52.144;5.360;2023-03-04T10:41:58;6.65;;;0.88;;
70796;SDS011;63842;52.144;5.360;2023-03-04T10:44:26;2.65;;;0.90;;
70796;SDS011;63842;52.144;5.360;2023-03-04T10:46:54;2.70;;;0.60;;
70796;SDS011;63842;52.144;5.360;2023-03-04T10:49:23;2.28;;;0.82;;
70796;SDS011;63842;52.144;5.360;2023-03-04T10:52:00;3.15;;;0.63;;
70796;SDS011;63842;52.144;5.360;2023-03-04T10:54:38;5.25;;;0.88;;
70796;SDS011;63842;52.144;5.360;2023-03-04T11:13:23;3.88;;;0.73;;
70796;SDS011;63842;52.144;5.360;2023-03-04T11:18:18;6.35;;;0.95;;
70796;SDS011;63842;52.144;5.360;2023-03-04T11:20:47;3.75;;;0.80;;
70796;SDS011;63842;52.144;5.360;2023-03-04T11:23:29;2.17;;;0.70;;
70796;SDS011;63842;52.144;5.360;2023-03-04T11:26:00;2.58;;;0.93;;
70796;SDS011;63842;52.144;5.360;2023-03-04T11:28:33;2.97;;;0.60;;
70796;SDS011;63842;52.144;5.360;2023-03-04T11:31:03;1.05;;;0.60;;
70796;SDS011;63842;52.144;5.360;2023-03-04T11:33:55;4.07;;;0.82;;
70796;SDS011;63842;52.144;5.360;2023-03-04T11:39:13;3.60;;;0.75;;
70796;SDS011;63842;52.144;5.360;2023-03-04T11:41:45;4.38;;;0.73;;
70796;SDS011;63842;52.144;5.360;2023-03-04T11:44:13;3.30;;;0.80;;
70796;SDS011;63842;52.144;5.360;2023-03-04T12:05:31;6.47;;;1.13;;
70796;SDS011;63842;52.144;5.360;2023-03-04T12:10:47;5.78;;;0.93;;
70796;SDS011;63842;52.144;5.360;2023-03-04T12:13:21;7.88;;;1.20;;
70796;SDS011;63842;52.144;5.360;2023-03-04T12:16:00;5.30;;;1.02;;
70796;SDS011;63842;52.144;5.360;2023-03-04T12:21:29;5.28;;;0.80;;
70796;SDS011;63842;52.144;5.360;2023-03-04T12:35:11;8.32;;;1.42;;
70796;SDS011;63842;52.144;5.360;2023-03-04T12:43:28;9.98;;;1.17;;
70796;SDS011;63842;52.144;5.360;2023-03-04T12:46:10;6.30;;;1.10;;
70796;SDS011;63842;52.144;5.360;2023-03-04T12:51:31;9.07;;;1.27;;
70796;SDS011;63842;52.144;5.360;2023-03-04T12:54:52;8.48;;;1.00;;
70796;SDS011;63842;52.144;5.360;2023-03-04T12:57:08;5.65;;;1.10;;
70796;SDS011;63842;52.144;5.360;2023-03-04T12:59:39;10.50;;;1.40;;
70796;SDS011;63842;52.144;5.360;2023-03-04T13:02:26;10.35;;;1.05;;
70796;SDS011;63842;52.144;5.360;2023-03-04T13:10:33;10.88;;;1.50;;
70796;SDS011;63842;52.144;5.360;2023-03-04T13:13:00;9.02;;;1.42;;
70796;SDS011;63842;52.144;5.360;2023-03-04T13:15:29;9.35;;;1.15;;
70796;SDS011;63842;52.144;5.360;2023-03-04T13:23:18;9.75;;;1.40;;
70796;SDS011;63842;52.144;5.360;2023-03-04T13:43:37;7.80;;;1.52;;
70796;SDS011;63842;52.144;5.360;2023-03-04T13:51:16;7.75;;;1.15;;
70796;SDS011;63842;52.144;5.360;2023-03-04T13:54:05;5.97;;;1.33;;
70796;SDS011;63842;52.144;5.360;2023-03-04T13:59:07;6.88;;;1.25;;
70796;SDS011;63842;52.144;5.360;2023-03-04T14:01:47;7.47;;;1.00;;
70796;SDS011;63842;52.144;5.360;2023-03-04T14:04:16;10.35;;;1.20;;
70796;SDS011;63842;52.144;5.360;2023-03-04T14:06:45;7.00;;;1.10;;
70796;SDS011;63842;52.144;5.360;2023-03-04T14:09:14;8.73;;;1.15;;
70796;SDS011;63842;52.144;5.360;2023-03-04T14:11:41;6.03;;;0.93;;
70796;SDS011;63842;52.144;5.360;2023-03-04T14:14:11;5.85;;;0.90;;
70796;SDS011;63842;52.144;5.360;2023-03-04T14:19:11;4.82;;;0.82;;
70796;SDS011;63842;52.144;5.360;2023-03-04T14:21:42;8.32;;;1.10;;
70796;SDS011;63842;52.144;5.360;2023-03-04T14:24:12;4.88;;;0.80;;
70796;SDS011;63842;52.144;5.360;2023-03-04T14:26:39;6.13;;;1.10;;
70796;SDS011;63842;52.144;5.360;2023-03-04T14:31:50;6.05;;;1.15;;
70796;SDS011;63842;52.144;5.360;2023-03-04T14:34:34;4.68;;;0.75;;
70796;SDS011;63842;52.144;5.360;2023-03-04T14:37:03;7.38;;;0.95;;
70796;SDS011;63842;52.144;5.360;2023-03-04T14:39:33;5.15;;;1.40;;
70796;SDS011;63842;52.144;5.360;2023-03-04T14:44:32;3.72;;;0.80;;
70796;SDS011;63842;52.144;5.360;2023-03-04T14:49:49;4.65;;;0.65;;
70796;SDS011;63842;52.144;5.360;2023-03-04T14:52:26;4.28;;;0.73;;
70796;SDS011;63842;52.144;5.360;2023-03-04T14:55:00;6.60;;;1.38;;
70796;SDS011;63842;52.144;5.360;2023-03-04T14:57:32;6.47;;;1.00;;
70796;SDS011;63842;52.144;5.360;2023-03-04T15:02:54;5.20;;;0.60;;
70796;SDS011;63842;52.144;5.360;2023-03-04T15:05:24;8.93;;;0.80;;
70796;SDS011;63842;52.144;5.360;2023-03-04T15:10:23;6.90;;;1.02;;
70796;SDS011;63842;52.144;5.360;2023-03-04T15:12:52;7.72;;;2.03;;
70796;SDS011;63842;52.144;5.360;2023-03-04T15:17:59;4.78;;;1.20;;
70796;SDS011;63842;52.144;5.360;2023-03-04T15:20:28;5.60;;;1.23;;
70796;SDS011;63842;52.144;5.360;2023-03-04T15:23:00;4.47;;;0.95;;
70796;SDS011;63842;52.144;5.360;2023-03-04T15:25:28;8.30;;;1.00;;
70796;SDS011;63842;52.144;5.360;2023-03-04T15:27:56;2.63;;;0.63;;
70796;SDS011;63842;52.144;5.360;2023-03-04T15:30:33;4.25;;;1.35;;
70796;SDS011;63842;52.144;5.360;2023-03-04T15:33:00;2.33;;;0.50;;
70796;SDS011;63842;52.144;5.360;2023-03-04T15:35:29;2.88;;;0.93;;
70796;SDS011;63842;52.144;5.360;2023-03-04T15:37:57;2.90;;;0.85;;
70796;SDS011;63842;52.144;5.360;2023-03-04T15:40:27;5.22;;;0.80;;
70796;SDS011;63842;52.144;5.360;2023-03-04T15:42:55;2.00;;;0.60;;
70796;SDS011;63842;52.144;5.360;2023-03-04T15:45:33;5.10;;;0.70;;
70796;SDS011;63842;52.144;5.360;2023-03-04T15:48:03;3.58;;;0.55;;
70796;SDS011;63842;52.144;5.360;2023-03-04T15:50:37;6.00;;;1.15;;
70796;SDS011;63842;52.144;5.360;2023-03-04T15:53:06;3.22;;;0.45;;
70796;SDS011;63842;52.144;5.360;2023-03-04T15:55:34;5.47;;;0.80;;
70796;SDS011;63842;52.144;5.360;2023-03-04T15:58:02;7.50;;;1.25;;
70796;SDS011;63842;52.144;5.360;2023-03-04T16:00:30;2.78;;;0.57;;
70796;SDS011;63842;52.144;5.360;2023-03-04T16:02:57;1.60;;;0.65;;
70796;SDS011;63842;52.144;5.360;2023-03-04T16:07:54;3.25;;;0.95;;
70796;SDS011;63842;52.144;5.360;2023-03-04T16:10:24;2.65;;;0.75;;
70796;SDS011;63842;52.144;5.360;2023-03-04T16:12:52;7.25;;;0.90;;
70796;SDS011;63842;52.144;5.360;2023-03-04T16:15:21;4.03;;;0.77;;
70796;SDS011;63842;52.144;5.360;2023-03-04T16:17:49;3.47;;;0.65;;
70796;SDS011;63842;52.144;5.360;2023-03-04T16:20:18;4.10;;;1.00;;
70796;SDS011;63842;52.144;5.360;2023-03-04T16:22:48;3.30;;;0.82;;
70796;SDS011;63842;52.144;5.360;2023-03-04T16:25:16;3.25;;;0.98;;
70796;SDS011;63842;52.144;5.360;2023-03-04T16:27:43;6.28;;;1.30;;
70796;SDS011;63842;52.144;5.360;2023-03-04T16:30:13;9.65;;;1.65;;
70796;SDS011;63842;52.144;5.360;2023-03-04T16:32:41;9.40;;;1.60;;
70796;SDS011;63842;52.144;5.360;2023-03-04T16:35:09;10.75;;;2.20;;
70796;SDS011;63842;52.144;5.360;2023-03-04T16:37:36;11.45;;;1.40;;
70796;SDS011;63842;52.144;5.360;2023-03-04T16:40:04;6.75;;;1.38;;
70796;SDS011;63842;52.144;5.360;2023-03-04T16:42:32;4.50;;;1.00;;
70796;SDS011;63842;52.144;5.360;2023-03-04T16:44:59;10.35;;;1.30;;
70796;SDS011;63842;52.144;5.360;2023-03-04T16:47:27;5.88;;;1.48;;
70796;SDS011;63842;52.144;5.360;2023-03-04T16:49:54;8.38;;;1.35;;
70796;SDS011;63842;52.144;5.360;2023-03-04T16:52:24;4.22;;;1.10;;
70796;SDS011;63842;52.144;5.360;2023-03-04T16:54:54;8.15;;;1.48;;
70796;SDS011;63842;52.144;5.360;2023-03-04T16:57:22;8.20;;;1.50;;
70796;SDS011;63842;52.144;5.360;2023-03-04T16:59:53;8.82;;;1.10;;
70796;SDS011;63842;52.144;5.360;2023-03-04T17:02:21;6.88;;;1.02;;
70796;SDS011;63842;52.144;5.360;2023-03-04T17:04:51;7.20;;;1.10;;
70796;SDS011;63842;52.144;5.360;2023-03-04T17:07:18;11.20;;;1.63;;
70796;SDS011;63842;52.144;5.360;2023-03-04T17:09:48;10.82;;;1.48;;
70796;SDS011;63842;52.144;5.360;2023-03-04T17:12:18;9.40;;;1.38;;
70796;SDS011;63842;52.144;5.360;2023-03-04T17:14:48;9.07;;;1.48;;
70796;SDS011;63842;52.144;5.360;2023-03-04T17:17:16;6.60;;;1.20;;
70796;SDS011;63842;52.144;5.360;2023-03-04T17:19:43;6.15;;;1.40;;